Time;durP1;ratioP1;P1;durP2;ratioP2;P2;SDS_P1;SDS_P2;PMS_P1;PMS_P2;Temp;Humidity;BMP_temperature;BMP_pressure;BME280_temperature;BME280_humidity;BME280_pressure;Samples;Min_cycle;Max_cycle;Signal;HPM_P1;HPM_P2
2023/09/16 00:01:40;;;;;;;4.07;3.07;;;;;;;;;;5072020;28;20634;-50
2023/09/16 00:04:09;;;;;;;5.40;2.67;;;;;;;;;;5072811;28;20219;-52
2023/09/16 00:06:36;;;;;;;4.40;2.67;;;;;;;;;;5073884;28;20242;-50
2023/09/16 00:09:02;;;;;;;3.60;3.03;;;;;;;;;;5072616;28;20815;-49
2023/09/16 00:11:30;;;;;;;5.23;3.07;;;;;;;;;;5074401;28;20554;-50
2023/09/16 00:13:57;;;;;;;3.27;2.70;;;;;;;;;;5074543;28;20177;-51
2023/09/16 00:16:23;;;;;;;3.27;2.87;;;;;;;;;;5073488;28;20242;-53
2023/09/16 00:18:51;;;;;;;5.87;2.43;;;;;;;;;;5074340;28;20176;-48
2023/09/16 00:21:20;;;;;;;3.43;2.87;;;;;;;;;;5074913;28;20619;-51
2023/09/16 00:23:46;;;;;;;2.80;2.43;;;;;;;;;;5071598;28;20164;-48
2023/09/16 00:26:13;;;;;;;5.50;3.07;;;;;;;;;;5068801;28;20169;-52
2023/09/16 00:28:40;;;;;;;3.57;2.80;;;;;;;;;;5068258;28;20417;-50
2023/09/16 00:31:07;;;;;;;4.73;2.87;;;;;;;;;;5068746;28;20628;-55
2023/09/16 00:33:33;;;;;;;3.07;2.70;;;;;;;;;;5069655;28;20289;-50
2023/09/16 00:35:59;;;;;;;3.23;2.80;;;;;;;;;;5070817;28;20181;-48
2023/09/16 00:38:26;;;;;;;3.10;2.80;;;;;;;;;;5071687;28;20230;-50
2023/09/16 00:40:52;;;;;;;4.27;3.13;;;;;;;;;;5070421;28;20175;-51
2023/09/16 00:43:19;;;;;;;3.87;3.10;;;;;;;;;;5070360;28;20268;-50
2023/09/16 00:45:45;;;;;;;3.93;2.73;;;;;;;;;;5071381;28;20259;-48
2023/09/16 00:48:13;;;;;;;3.73;2.77;;;;;;;;;;5071940;28;20176;-53
2023/09/16 00:50:41;;;;;;;2.90;2.60;;;;;;;;;;5070390;28;20173;-48
2023/09/16 00:53:09;;;;;;;4.03;2.90;;;;;;;;;;5073337;28;20258;-53
2023/09/16 00:55:35;;;;;;;3.57;2.90;;;;;;;;;;5092688;28;20176;-50
2023/09/16 00:58:02;;;;;;;4.57;3.10;;;;;;;;;;5074786;28;20241;-50
2023/09/16 01:00:30;;;;;;;5.60;2.70;;;;;;;;;;5073153;28;20203;-52
2023/09/16 01:03:00;;;;;;;4.47;2.87;;;;;;;;;;5088716;28;20370;-50
2023/09/16 01:05:27;;;;;;;3.83;2.70;;;;;;;;;;5071528;28;20168;-52
2023/09/16 01:07:54;;;;;;;5.53;3.20;;;;;;;;;;5072395;28;20520;-49
2023/09/16 01:10:22;;;;;;;4.77;2.73;;;;;;;;;;5055413;28;20167;-50
2023/09/16 01:12:49;;;;;;;4.30;2.60;;;;;;;;;;5071913;28;20642;-49
2023/09/16 01:15:16;;;;;;;3.43;2.63;;;;;;;;;;5070666;28;20459;-53
2023/09/16 01:17:45;;;;;;;4.67;3.27;;;;;;;;;;5088558;28;20179;-52
2023/09/16 01:20:13;;;;;;;3.17;2.77;;;;;;;;;;5071526;28;20201;-50
2023/09/16 01:22:44;;;;;;;3.80;2.70;;;;;;;;;;5070479;28;20274;-50
2023/09/16 01:25:11;;;;;;;2.93;2.63;;;;;;;;;;5057039;28;20183;-51
2023/09/16 01:27:37;;;;;;;5.67;2.80;;;;;;;;;;5073119;28;20168;-50
2023/09/16 01:30:05;;;;;;;6.27;3.17;;;;;;;;;;5071906;28;20168;-48
2023/09/16 01:32:43;;;;;;;3.30;2.93;;;;;;;;;;5071589;28;20180;-50
2023/09/16 01:35:11;;;;;;;4.80;2.77;;;;;;;;;;5071409;28;20264;-50
2023/09/16 01:37:38;;;;;;;5.03;3.23;;;;;;;;;;5072345;28;20184;-49
2023/09/16 01:40:10;;;;;;;4.20;2.93;;;;;;;;;;5090048;28;20172;-51
2023/09/16 01:42:37;;;;;;;4.33;2.70;;;;;;;;;;5090686;28;20498;-50
2023/09/16 01:45:04;;;;;;;3.13;2.60;;;;;;;;;;5072129;28;20172;-48
2023/09/16 01:47:30;;;;;;;7.07;3.57;;;;;;;;;;5073218;28;20183;-51
2023/09/16 01:49:56;;;;;;;3.93;3.20;;;;;;;;;;5073839;28;20170;-52
2023/09/16 01:52:23;;;;;;;4.20;3.13;;;;;;;;;;5071851;28;20191;-50
2023/09/16 01:54:49;;;;;;;3.77;2.97;;;;;;;;;;5069171;28;20228;-48
2023/09/16 01:57:15;;;;;;;4.67;2.93;;;;;;;;;;5068756;28;20454;-50
2023/09/16 01:59:41;;;;;;;4.27;3.00;;;;;;;;;;5068257;28;20373;-49
2023/09/16 02:02:07;;;;;;;3.40;2.57;;;;;;;;;;5068174;28;20644;-49
2023/09/16 02:04:33;;;;;;;4.57;2.87;;;;;;;;;;5068770;28;20428;-51
2023/09/16 02:06:59;;;;;;;3.00;2.70;;;;;;;;;;5069081;28;20287;-48
2023/09/16 02:09:25;;;;;;;3.63;2.90;;;;;;;;;;5068010;28;20176;-48
2023/09/16 02:11:51;;;;;;;3.23;2.67;;;;;;;;;;5068284;28;20468;-50
2023/09/16 02:14:20;;;;;;;4.40;2.73;;;;;;;;;;5068551;28;20177;-49
2023/09/16 02:16:46;;;;;;;2.97;2.50;;;;;;;;;;5071553;28;20239;-48
2023/09/16 02:19:12;;;;;;;4.40;2.97;;;;;;;;;;5074155;28;20196;-50
2023/09/16 02:21:38;;;;;;;3.80;3.00;;;;;;;;;;5072291;28;20211;-52
2023/09/16 02:24:05;;;;;;;3.13;2.50;;;;;;;;;;5072408;28;20173;-51
2023/09/16 02:26:31;;;;;;;5.03;3.23;;;;;;;;;;5072990;28;20168;-48
2023/09/16 02:28:57;;;;;;;3.20;2.80;;;;;;;;;;5072758;28;20175;-48
2023/09/16 02:31:26;;;;;;;6.87;3.20;;;;;;;;;;5072072;28;20173;-50
2023/09/16 02:33:58;;;;;;;4.50;3.13;;;;;;;;;;5073399;28;20195;-54
2023/09/16 02:36:24;;;;;;;4.67;2.80;;;;;;;;;;5073819;28;20387;-48
2023/09/16 02:38:51;;;;;;;4.27;3.00;;;;;;;;;;5074537;28;20312;-50
2023/09/16 02:41:17;;;;;;;4.60;3.20;;;;;;;;;;5071364;28;20200;-50
2023/09/16 02:43:44;;;;;;;6.53;3.63;;;;;;;;;;5073905;28;20165;-49
2023/09/16 02:46:10;;;;;;;3.17;2.87;;;;;;;;;;5074207;28;20161;-49
2023/09/16 02:48:36;;;;;;;3.77;3.03;;;;;;;;;;5074552;28;20168;-53
2023/09/16 02:51:03;;;;;;;4.93;3.13;;;;;;;;;;5072573;28;20470;-51
2023/09/16 02:53:29;;;;;;;4.60;3.60;;;;;;;;;;5073074;28;20232;-47
2023/09/16 02:55:55;;;;;;;3.10;2.80;;;;;;;;;;5072161;28;20176;-48
2023/09/16 02:58:21;;;;;;;5.97;3.33;;;;;;;;;;5071572;28;20240;-51
2023/09/16 03:00:47;;;;;;;5.77;3.63;;;;;;;;;;5070572;28;20161;-52
2023/09/16 03:03:13;;;;;;;4.17;3.50;;;;;;;;;;5070642;28;20201;-50
2023/09/16 03:05:45;;;;;;;5.77;3.53;;;;;;;;;;5070599;28;20200;-49
2023/09/16 03:08:12;;;;;;;4.93;3.73;;;;;;;;;;5070855;28;20165;-55
2023/09/16 03:10:38;;;;;;;5.97;3.77;;;;;;;;;;5072061;28;20211;-52
2023/09/16 03:13:04;;;;;;;6.17;3.13;;;;;;;;;;5071909;28;20175;-49
2023/09/16 03:15:30;;;;;;;4.30;3.27;;;;;;;;;;5070642;28;20177;-51
2023/09/16 03:17:56;;;;;;;5.67;3.00;;;;;;;;;;5072581;28;20389;-48
2023/09/16 03:20:22;;;;;;;3.83;3.20;;;;;;;;;;5071257;28;20223;-50
2023/09/16 03:22:48;;;;;;;5.70;4.03;;;;;;;;;;5071535;28;20663;-51
2023/09/16 03:25:14;;;;;;;4.37;3.27;;;;;;;;;;5072724;28;20549;-50
2023/09/16 03:27:40;;;;;;;4.37;3.20;;;;;;;;;;5071316;28;20172;-49
2023/09/16 03:30:07;;;;;;;3.67;3.37;;;;;;;;;;5072034;28;20243;-48
2023/09/16 03:32:33;;;;;;;4.70;3.33;;;;;;;;;;5070897;28;20183;-49
2023/09/16 03:34:59;;;;;;;4.33;3.33;;;;;;;;;;5072304;28;20180;-49
2023/09/16 03:37:25;;;;;;;3.23;2.87;;;;;;;;;;5072315;28;20185;-49
2023/09/16 03:39:51;;;;;;;4.60;3.83;;;;;;;;;;5072497;28;20304;-48
2023/09/16 03:42:17;;;;;;;4.03;3.63;;;;;;;;;;5071314;28;20215;-48
2023/09/16 03:44:43;;;;;;;4.20;3.27;;;;;;;;;;5072485;28;20172;-49
2023/09/16 03:47:10;;;;;;;5.10;3.50;;;;;;;;;;5071690;28;20238;-50
2023/09/16 03:49:36;;;;;;;5.30;3.20;;;;;;;;;;5072291;28;20391;-48
2023/09/16 03:52:02;;;;;;;5.43;3.43;;;;;;;;;;5072957;28;20192;-50
2023/09/16 03:54:28;;;;;;;4.37;3.10;;;;;;;;;;5073759;28;20307;-49
2023/09/16 03:56:54;;;;;;;3.93;3.20;;;;;;;;;;5074267;28;20283;-51
2023/09/16 03:59:21;;;;;;;4.37;3.47;;;;;;;;;;5074403;28;20244;-49
2023/09/16 04:01:47;;;;;;;3.63;3.13;;;;;;;;;;5073005;28;20211;-50
2023/09/16 04:04:14;;;;;;;7.10;3.93;;;;;;;;;;5073903;28;20171;-51
2023/09/16 04:06:40;;;;;;;4.47;3.30;;;;;;;;;;5073487;28;20207;-49
2023/09/16 04:09:06;;;;;;;6.23;3.30;;;;;;;;;;5071948;28;20186;-48
2023/09/16 04:11:32;;;;;;;6.43;4.13;;;;;;;;;;5069704;28;20176;-49
2023/09/16 04:13:58;;;;;;;4.63;3.60;;;;;;;;;;5071791;28;20172;-52
2023/09/16 04:16:25;;;;;;;6.27;3.63;;;;;;;;;;5070815;28;20450;-49
2023/09/16 04:18:53;;;;;;;6.30;3.47;;;;;;;;;;5072613;28;20172;-51
2023/09/16 04:21:19;;;;;;;4.73;3.77;;;;;;;;;;5073123;28;20235;-49
2023/09/16 04:23:45;;;;;;;5.10;3.17;;;;;;;;;;5073118;28;20245;-52
2023/09/16 04:26:15;;;;;;;3.47;3.10;;;;;;;;;;5073730;28;20180;-49
2023/09/16 04:28:41;;;;;;;5.23;3.00;;;;;;;;;;5091366;28;20515;-48
2023/09/16 04:31:08;;;;;;;3.90;3.00;;;;;;;;;;5072925;28;20469;-51
2023/09/16 04:33:35;;;;;;;4.33;3.80;;;;;;;;;;5072610;28;20168;-48
2023/09/16 04:36:01;;;;;;;4.67;3.37;;;;;;;;;;5091940;28;20304;-48
2023/09/16 04:38:28;;;;;;;4.70;3.40;;;;;;;;;;5075316;28;20466;-48
2023/09/16 04:40:55;;;;;;;4.43;3.77;;;;;;;;;;5091414;28;20195;-52
2023/09/16 04:43:21;;;;;;;4.43;3.50;;;;;;;;;;5072930;28;20214;-50
2023/09/16 04:45:48;;;;;;;4.57;3.30;;;;;;;;;;5073740;28;20263;-51
2023/09/16 04:48:15;;;;;;;4.10;3.37;;;;;;;;;;5072688;28;20183;-49
2023/09/16 04:50:43;;;;;;;3.50;3.07;;;;;;;;;;5091788;28;20172;-51
2023/09/16 04:53:09;;;;;;;6.57;3.63;;;;;;;;;;5074307;28;20176;-51
2023/09/16 04:55:36;;;;;;;5.03;3.23;;;;;;;;;;5070266;28;20293;-49
2023/09/16 04:58:02;;;;;;;5.30;3.47;;;;;;;;;;5068437;28;20184;-50
2023/09/16 05:00:33;;;;;;;5.77;3.20;;;;;;;;;;5067981;28;20330;-51
2023/09/16 05:02:59;;;;;;;4.63;3.67;;;;;;;;;;5068177;28;20205;-52
2023/09/16 05:05:25;;;;;;;5.50;3.33;;;;;;;;;;5068657;28;20522;-50
2023/09/16 05:07:51;;;;;;;4.00;3.60;;;;;;;;;;5070070;28;20454;-51
2023/09/16 05:10:17;;;;;;;6.93;3.63;;;;;;;;;;5068552;28;20168;-51
2023/09/16 05:12:43;;;;;;;3.67;3.10;;;;;;;;;;5068362;28;20169;-49
2023/09/16 05:15:10;;;;;;;3.50;3.20;;;;;;;;;;5070384;28;20207;-50
2023/09/16 05:17:37;;;;;;;6.10;4.00;;;;;;;;;;5067332;28;20264;-52
2023/09/16 05:20:03;;;;;;;5.13;3.50;;;;;;;;;;5067379;28;20176;-49
2023/09/16 05:22:29;;;;;;;6.00;3.50;;;;;;;;;;5066143;28;20208;-49
2023/09/16 05:24:55;;;;;;;3.77;3.30;;;;;;;;;;5067178;28;20560;-50
2023/09/16 05:27:22;;;;;;;4.60;3.93;;;;;;;;;;5070128;28;20161;-51
2023/09/16 05:29:52;;;;;;;4.70;3.97;;;;;;;;;;5072428;28;20176;-50
2023/09/16 05:32:18;;;;;;;3.67;3.37;;;;;;;;;;5073240;28;20204;-49
2023/09/16 05:34:44;;;;;;;8.20;3.70;;;;;;;;;;5053675;28;20192;-52
2023/09/16 05:37:10;;;;;;;5.20;3.43;;;;;;;;;;5056073;28;20181;-49
2023/09/16 05:39:36;;;;;;;5.80;4.37;;;;;;;;;;5073722;28;20176;-50
2023/09/16 05:42:02;;;;;;;4.47;3.60;;;;;;;;;;5056229;28;20211;-48
2023/09/16 05:44:28;;;;;;;5.80;3.47;;;;;;;;;;5056638;28;20169;-50
2023/09/16 05:46:55;;;;;;;7.83;4.23;;;;;;;;;;5056570;28;20200;-50
2023/09/16 05:49:21;;;;;;;4.27;3.13;;;;;;;;;;5043569;28;20457;-50
2023/09/16 05:51:47;;;;;;;6.33;3.43;;;;;;;;;;5040453;28;20282;-49
2023/09/16 05:54:15;;;;;;;4.33;3.57;;;;;;;;;;5040468;28;20250;-48
2023/09/16 05:56:42;;;;;;;4.70;3.03;;;;;;;;;;5054575;28;20225;-50
2023/09/16 05:59:08;;;;;;;6.03;3.43;;;;;;;;;;5061175;28;20191;-50
2023/09/16 06:01:35;;;;;;;5.07;3.73;;;;;;;;;;5073087;28;20505;-49
2023/09/16 06:04:01;;;;;;;3.57;3.10;;;;;;;;;;5072587;28;20173;-50
2023/09/16 06:06:27;;;;;;;3.77;3.47;;;;;;;;;;5070519;28;20472;-50
2023/09/16 06:08:53;;;;;;;4.73;3.80;;;;;;;;;;5069077;28;20279;-49
2023/09/16 06:11:20;;;;;;;6.23;3.63;;;;;;;;;;5067944;28;20177;-51
2023/09/16 06:13:46;;;;;;;5.27;3.60;;;;;;;;;;5064655;28;20333;-48
2023/09/16 06:16:13;;;;;;;5.60;3.77;;;;;;;;;;5065303;28;20172;-49
2023/09/16 06:18:39;;;;;;;5.53;3.77;;;;;;;;;;5066404;28;20172;-48
2023/09/16 06:21:06;;;;;;;4.33;3.10;;;;;;;;;;5065883;28;20183;-52
2023/09/16 06:23:32;;;;;;;3.70;3.00;;;;;;;;;;5067176;28;20567;-51
2023/09/16 06:25:58;;;;;;;5.73;3.43;;;;;;;;;;5068112;28;20536;-50
2023/09/16 06:28:24;;;;;;;4.30;3.37;;;;;;;;;;5069093;28;20169;-52
2023/09/16 06:30:51;;;;;;;4.50;3.30;;;;;;;;;;5069362;28;20528;-48
2023/09/16 06:33:17;;;;;;;4.57;3.10;;;;;;;;;;5070565;28;20699;-50
2023/09/16 06:35:43;;;;;;;4.83;4.17;;;;;;;;;;5068420;28;20584;-51
2023/09/16 06:38:09;;;;;;;3.60;3.10;;;;;;;;;;5068558;28;20177;-47
2023/09/16 06:40:35;;;;;;;3.90;2.97;;;;;;;;;;5069747;28;20238;-48
2023/09/16 06:43:01;;;;;;;4.60;3.50;;;;;;;;;;5068216;28;20208;-52
2023/09/16 06:45:27;;;;;;;4.60;3.90;;;;;;;;;;5068664;28;20188;-47
2023/09/16 06:47:56;;;;;;;6.20;3.30;;;;;;;;;;5067793;28;20253;-50
2023/09/16 06:50:22;;;;;;;5.17;3.57;;;;;;;;;;5066883;28;20164;-48
2023/09/16 06:52:48;;;;;;;5.03;3.70;;;;;;;;;;5067015;28;20211;-47
2023/09/16 06:55:14;;;;;;;5.50;3.63;;;;;;;;;;5067164;28;20239;-48
2023/09/16 06:57:40;;;;;;;3.70;3.30;;;;;;;;;;5064758;28;20173;-50
2023/09/16 07:00:07;;;;;;;6.50;3.80;;;;;;;;;;5065011;28;20173;-47
2023/09/16 07:02:33;;;;;;;4.20;3.80;;;;;;;;;;5064013;28;20280;-50
2023/09/16 07:04:59;;;;;;;3.30;2.87;;;;;;;;;;5064073;28;20204;-51
2023/09/16 07:07:27;;;;;;;4.77;3.67;;;;;;;;;;5062560;28;20541;-52
2023/09/16 07:09:55;;;;;;;3.50;3.20;;;;;;;;;;5063523;28;20459;-51
2023/09/16 07:12:21;;;;;;;6.17;3.70;;;;;;;;;;5062518;28;20237;-52
2023/09/16 07:14:47;;;;;;;5.07;4.00;;;;;;;;;;5061666;28;20169;-50
2023/09/16 07:17:13;;;;;;;5.40;4.10;;;;;;;;;;5062653;28;20250;-50
2023/09/16 07:19:39;;;;;;;7.37;4.43;;;;;;;;;;5062871;28;20329;-48
2023/09/16 07:22:06;;;;;;;7.47;4.50;;;;;;;;;;5062002;28;20220;-49
2023/09/16 07:24:32;;;;;;;4.80;4.13;;;;;;;;;;5062318;28;20666;-48
2023/09/16 07:26:59;;;;;;;3.60;3.30;;;;;;;;;;5064684;28;20169;-49
2023/09/16 07:29:26;;;;;;;5.13;3.70;;;;;;;;;;5066449;28;20286;-52
2023/09/16 07:31:52;;;;;;;6.40;4.40;;;;;;;;;;5072355;28;20196;-49
2023/09/16 07:34:20;;;;;;;7.07;4.20;;;;;;;;;;5069628;28;20604;-47
2023/09/16 07:36:46;;;;;;;4.63;3.77;;;;;;;;;;5064984;28;20422;-48
2023/09/16 07:39:13;;;;;;;6.67;4.13;;;;;;;;;;5065829;28;20210;-50
2023/09/16 07:41:40;;;;;;;6.23;4.33;;;;;;;;;;5066083;28;20422;-49
2023/09/16 07:44:06;;;;;;;4.00;3.60;;;;;;;;;;5067026;28;20169;-50
2023/09/16 07:46:34;;;;;;;5.37;3.60;;;;;;;;;;5067692;28;20160;-50
2023/09/16 07:49:00;;;;;;;7.20;4.10;;;;;;;;;;5066584;28;20173;-49
2023/09/16 07:51:26;;;;;;;3.83;3.43;;;;;;;;;;5066283;28;20297;-52
2023/09/16 07:53:52;;;;;;;6.33;3.77;;;;;;;;;;5063049;28;20315;-50
2023/09/16 07:56:20;;;;;;;4.70;3.83;;;;;;;;;;5062914;28;20255;-47
2023/09/16 07:58:46;;;;;;;4.13;3.57;;;;;;;;;;5064143;28;20157;-51
2023/09/16 08:01:12;;;;;;;5.43;3.67;;;;;;;;;;5064871;28;20242;-48
2023/09/16 08:03:39;;;;;;;5.47;3.70;;;;;;;;;;5064326;28;20173;-51
2023/09/16 08:06:06;;;;;;;5.90;3.80;;;;;;;;;;5065794;28;20630;-50
2023/09/16 08:08:33;;;;;;;4.47;3.63;;;;;;;;;;5070572;28;20196;-51
2023/09/16 08:10:59;;;;;;;8.87;4.03;;;;;;;;;;5070492;28;20173;-49
2023/09/16 08:13:25;;;;;;;10.27;3.97;;;;;;;;;;5069952;28;20169;-48
2023/09/16 08:15:51;;;;;;;4.53;3.93;;;;;;;;;;5070276;28;20368;-52
2023/09/16 08:18:17;;;;;;;5.80;3.83;;;;;;;;;;5068445;28;20172;-52
2023/09/16 08:20:44;;;;;;;6.43;3.60;;;;;;;;;;5068095;28;20484;-48
2023/09/16 08:23:13;;;;;;;3.93;3.50;;;;;;;;;;5067347;28;20204;-50
2023/09/16 08:25:39;;;;;;;6.17;4.00;;;;;;;;;;5068523;28;20582;-49
2023/09/16 08:28:05;;;;;;;6.00;4.13;;;;;;;;;;5069078;28;20692;-54
2023/09/16 08:30:31;;;;;;;5.77;3.37;;;;;;;;;;5068141;28;20172;-48
2023/09/16 08:32:58;;;;;;;7.10;3.60;;;;;;;;;;5069136;28;20173;-48
2023/09/16 08:35:26;;;;;;;3.60;3.10;;;;;;;;;;5070405;28;20176;-49
2023/09/16 08:37:58;;;;;;;4.17;3.47;;;;;;;;;;5069664;28;20184;-50
2023/09/16 08:40:25;;;;;;;7.00;4.27;;;;;;;;;;5069346;28;20176;-50
2023/09/16 08:43:14;;;;;;;4.17;3.67;;;;;;;;;;5068781;28;20616;-53
2023/09/16 08:45:43;;;;;;;3.97;2.83;;;;;;;;;;5069671;28;20219;-54
2023/09/16 08:48:13;;;;;;;4.17;2.80;;;;;;;;;;5067746;28;20184;-50
2023/09/16 08:50:40;;;;;;;3.20;2.90;;;;;;;;;;5068199;28;20229;-48
2023/09/16 08:53:07;;;;;;;4.90;3.67;;;;;;;;;;5069171;28;20165;-52
2023/09/16 08:55:35;;;;;;;6.23;4.00;;;;;;;;;;5070010;28;20365;-48
2023/09/16 08:58:06;;;;;;;5.03;3.40;;;;;;;;;;5069560;28;20184;-50
2023/09/16 09:00:32;;;;;;;3.40;2.80;;;;;;;;;;5064879;28;20184;-51
2023/09/16 09:02:59;;;;;;;4.67;3.67;;;;;;;;;;5061169;28;20203;-49
2023/09/16 09:05:26;;;;;;;3.70;3.40;;;;;;;;;;5059230;28;20303;-49
2023/09/16 09:07:52;;;;;;;3.43;3.10;;;;;;;;;;5059087;28;20294;-54
2023/09/16 09:10:18;;;;;;;5.13;3.70;;;;;;;;;;5058164;28;20203;-48
2023/09/16 09:12:44;;;;;;;4.33;3.00;;;;;;;;;;5058266;28;20173;-50
2023/09/16 09:15:15;;;;;;;5.07;3.30;;;;;;;;;;5056603;28;20263;-49
2023/09/16 09:17:43;;;;;;;5.00;3.50;;;;;;;;;;5061613;28;20176;-48
2023/09/16 09:20:12;;;;;;;4.03;3.20;;;;;;;;;;5062992;28;20183;-50
2023/09/16 09:22:39;;;;;;;4.23;3.30;;;;;;;;;;5064340;28;20216;-50
2023/09/16 09:25:06;;;;;;;3.87;3.07;;;;;;;;;;5063645;28;20520;-52
2023/09/16 09:27:32;;;;;;;3.50;3.10;;;;;;;;;;5068178;28;20317;-48
2023/09/16 09:29:59;;;;;;;3.97;3.33;;;;;;;;;;5067463;28;20172;-48
2023/09/16 09:32:29;;;;;;;3.53;3.20;;;;;;;;;;5069660;28;20172;-48
2023/09/16 09:34:55;;;;;;;3.23;2.93;;;;;;;;;;5069279;28;20234;-49
2023/09/16 09:37:21;;;;;;;6.43;3.50;;;;;;;;;;5068773;28;20268;-52
2023/09/16 09:40:04;;;;;;;6.10;3.50;;;;;;;;;;5066931;28;20276;-48
2023/09/16 09:42:30;;;;;;;4.17;2.93;;;;;;;;;;5064778;28;20213;-51
2023/09/16 09:45:03;;;;;;;5.60;3.67;;;;;;;;;;5063178;28;20169;-48
2023/09/16 09:47:30;;;;;;;5.17;3.00;;;;;;;;;;5063465;28;20267;-50
2023/09/16 09:49:56;;;;;;;3.37;3.07;;;;;;;;;;5063153;28;20226;-47
2023/09/16 09:52:23;;;;;;;2.80;2.50;;;;;;;;;;5062412;28;20190;-52
2023/09/16 09:54:52;;;;;;;4.00;3.40;;;;;;;;;;5061814;28;20472;-49
2023/09/16 09:57:19;;;;;;;9.00;3.50;;;;;;;;;;5064903;28;20267;-53
2023/09/16 09:59:45;;;;;;;3.23;2.63;;;;;;;;;;5066951;28;20450;-53
2023/09/16 10:02:11;;;;;;;4.03;3.40;;;;;;;;;;5069354;28;20239;-50
2023/09/16 10:04:39;;;;;;;4.97;3.00;;;;;;;;;;5068164;28;20173;-48
2023/09/16 10:07:05;;;;;;;4.73;2.83;;;;;;;;;;5070402;28;20195;-52
2023/09/16 10:09:31;;;;;;;3.63;3.13;;;;;;;;;;5069537;28;20721;-48
2023/09/16 10:11:59;;;;;;;2.83;2.43;;;;;;;;;;5069801;28;20315;-49
2023/09/16 10:14:25;;;;;;;4.00;3.23;;;;;;;;;;5068582;28;20169;-48
2023/09/16 10:16:52;;;;;;;3.10;2.60;;;;;;;;;;5068284;28;20172;-51
2023/09/16 10:19:21;;;;;;;6.17;3.07;;;;;;;;;;5064770;28;20202;-50
2023/09/16 10:21:47;;;;;;;3.27;2.97;;;;;;;;;;5064373;28;20205;-50
2023/09/16 10:24:14;;;;;;;3.70;2.50;;;;;;;;;;5063677;28;20172;-48
2023/09/16 10:26:41;;;;;;;5.37;3.33;;;;;;;;;;5061682;28;20257;-49
2023/09/16 10:29:07;;;;;;;3.43;3.03;;;;;;;;;;5064502;28;20520;-48
2023/09/16 10:31:33;;;;;;;4.87;2.83;;;;;;;;;;5063966;28;20350;-48
2023/09/16 10:33:59;;;;;;;3.17;2.67;;;;;;;;;;5061954;28;20177;-48
2023/09/16 10:36:27;;;;;;;5.33;2.90;;;;;;;;;;5064286;28;20189;-51
2023/09/16 10:38:54;;;;;;;3.20;2.80;;;;;;;;;;5066187;28;20173;-51
2023/09/16 10:41:21;;;;;;;2.80;2.60;;;;;;;;;;5064718;28;20536;-52
2023/09/16 10:43:47;;;;;;;4.00;3.00;;;;;;;;;;5066694;28;20529;-48
2023/09/16 10:46:14;;;;;;;3.00;2.70;;;;;;;;;;5066896;28;20387;-48
2023/09/16 10:48:40;;;;;;;3.20;2.90;;;;;;;;;;5065519;28;20573;-51
2023/09/16 10:51:10;;;;;;;3.70;3.05;;;;;;;;;;5065398;28;20176;-50
2023/09/16 10:53:40;;;;;;;5.20;2.67;;;;;;;;;;5062361;28;20196;-51
2023/09/16 10:56:06;;;;;;;4.55;2.80;;;;;;;;;;5062693;28;20674;-51
2023/09/16 10:58:36;;;;;;;3.38;2.72;;;;;;;;;;5061373;28;20200;-51
2023/09/16 11:01:03;;;;;;;2.75;2.53;;;;;;;;;;5062356;28;20175;-51
2023/09/16 11:03:33;;;;;;;3.97;2.40;;;;;;;;;;5059247;28;20411;-49
2023/09/16 11:05:59;;;;;;;5.85;3.10;;;;;;;;;;5058677;28;20379;-48
2023/09/16 11:08:25;;;;;;;2.95;2.25;;;;;;;;;;5061491;28;20200;-50
2023/09/16 11:10:53;;;;;;;3.58;2.42;;;;;;;;;;5061031;28;20168;-51
2023/09/16 11:13:20;;;;;;;3.92;3.10;;;;;;;;;;5060824;28;20176;-51
2023/09/16 11:15:47;;;;;;;3.80;2.83;;;;;;;;;;5065443;28;20184;-49
2023/09/16 11:18:16;;;;;;;3.28;2.53;;;;;;;;;;5066250;28;20165;-55
2023/09/16 11:20:42;;;;;;;2.15;1.95;;;;;;;;;;5068851;28;20271;-56
2023/09/16 11:23:09;;;;;;;2.90;2.60;;;;;;;;;;5059100;28;20397;-53
2023/09/16 11:25:38;;;;;;;2.45;2.25;;;;;;;;;;5065859;28;20560;-53
2023/09/16 11:28:08;;;;;;;2.42;2.13;;;;;;;;;;5065844;28;20165;-54
2023/09/16 11:30:35;;;;;;;2.70;2.50;;;;;;;;;;5065986;28;20172;-50
2023/09/16 11:33:08;;;;;;;5.00;3.05;;;;;;;;;;5065012;28;20767;-51
2023/09/16 11:35:37;;;;;;;2.75;2.50;;;;;;;;;;5066606;28;20326;-52
2023/09/16 11:38:03;;;;;;;3.30;2.33;;;;;;;;;;5066527;28;20173;-50
2023/09/16 11:40:30;;;;;;;3.15;2.22;;;;;;;;;;5067715;28;20250;-54
2023/09/16 11:42:56;;;;;;;3.08;2.50;;;;;;;;;;5066052;28;20204;-50
2023/09/16 11:45:23;;;;;;;3.55;2.22;;;;;;;;;;5069349;28;20167;-53
2023/09/16 11:47:50;;;;;;;2.83;2.58;;;;;;;;;;5068361;28;20257;-51
2023/09/16 11:50:22;;;;;;;3.22;2.40;;;;;;;;;;5069053;28;20590;-53
2023/09/16 11:52:48;;;;;;;5.53;2.65;;;;;;;;;;5067357;28;20177;-51
2023/09/16 11:55:15;;;;;;;3.47;2.70;;;;;;;;;;5068695;28;20386;-49
2023/09/16 11:57:41;;;;;;;6.97;2.45;;;;;;;;;;5068084;28;20176;-53
2023/09/16 12:00:09;;;;;;;5.78;2.75;;;;;;;;;;5068595;28;20160;-50
2023/09/16 12:02:35;;;;;;;2.58;2.17;;;;;;;;;;5070591;28;20207;-50
2023/09/16 12:05:02;;;;;;;2.35;1.80;;;;;;;;;;5066349;28;20633;-52
2023/09/16 12:07:30;;;;;;;3.63;2.45;;;;;;;;;;5063075;28;20245;-49
2023/09/16 12:09:56;;;;;;;4.70;2.10;;;;;;;;;;5063696;28;20465;-50
2023/09/16 12:12:23;;;;;;;2.65;2.45;;;;;;;;;;5066465;28;20293;-54
2023/09/16 12:14:49;;;;;;;3.65;2.33;;;;;;;;;;5068237;28;20274;-48
2023/09/16 12:17:16;;;;;;;2.20;2.00;;;;;;;;;;5066266;28;20299;-52
2023/09/16 12:19:49;;;;;;;2.05;1.95;;;;;;;;;;5066185;28;20169;-51
2023/09/16 12:22:16;;;;;;;2.40;2.20;;;;;;;;;;5066382;28;20282;-49
2023/09/16 12:24:42;;;;;;;2.42;2.08;;;;;;;;;;5065568;28;20161;-49
2023/09/16 12:27:09;;;;;;;2.30;2.10;;;;;;;;;;5063868;28;20293;-49
2023/09/16 12:29:36;;;;;;;2.25;2.00;;;;;;;;;;5062487;28;20296;-50
2023/09/16 12:32:09;;;;;;;5.30;2.35;;;;;;;;;;5062736;28;20176;-49
2023/09/16 12:34:36;;;;;;;2.60;2.08;;;;;;;;;;5063391;28;20257;-49
2023/09/16 12:37:02;;;;;;;2.30;2.10;;;;;;;;;;5060483;28;20511;-51
2023/09/16 12:39:29;;;;;;;2.88;2.03;;;;;;;;;;5060322;28;20165;-48
2023/09/16 12:41:58;;;;;;;3.22;2.50;;;;;;;;;;5058748;28;20204;-50
2023/09/16 12:44:25;;;;;;;2.50;2.22;;;;;;;;;;5063027;28;20307;-50
2023/09/16 12:46:51;;;;;;;2.60;2.38;;;;;;;;;;5061979;28;20171;-52
2023/09/16 12:49:17;;;;;;;3.15;2.30;;;;;;;;;;5058035;28;20169;-49
2023/09/16 12:51:47;;;;;;;2.97;2.22;;;;;;;;;;5059377;28;20173;-49
2023/09/16 12:54:16;;;;;;;2.45;2.20;;;;;;;;;;5058380;28;20249;-49
2023/09/16 12:56:51;;;;;;;2.50;2.30;;;;;;;;;;5056275;28;20374;-52
2023/09/16 12:59:20;;;;;;;3.53;2.15;;;;;;;;;;5056922;28;20413;-52
2023/09/16 13:01:53;;;;;;;2.85;2.45;;;;;;;;;;5054309;28;20287;-52
2023/09/16 13:04:21;;;;;;;3.08;2.33;;;;;;;;;;5056144;28;20336;-49
2023/09/16 13:06:51;;;;;;;4.20;2.20;;;;;;;;;;5060993;28;20169;-50
2023/09/16 13:09:21;;;;;;;2.10;1.90;;;;;;;;;;5063063;28;20230;-49
2023/09/16 13:11:54;;;;;;;2.92;2.00;;;;;;;;;;5061717;28;20565;-51
2023/09/16 13:14:22;;;;;;;2.20;2.00;;;;;;;;;;5060967;28;20169;-51
2023/09/16 13:16:51;;;;;;;2.17;1.92;;;;;;;;;;5061390;28;20312;-50
2023/09/16 13:19:22;;;;;;;1.95;1.80;;;;;;;;;;5062196;28;20436;-50
2023/09/16 13:21:51;;;;;;;2.30;2.05;;;;;;;;;;5060012;28;20599;-49
2023/09/16 13:24:19;;;;;;;2.42;2.22;;;;;;;;;;5062128;28;20161;-50
2023/09/16 13:26:55;;;;;;;2.55;2.08;;;;;;;;;;5059902;28;20255;-52
2023/09/16 13:29:23;;;;;;;2.30;2.10;;;;;;;;;;5058476;28;20564;-51
2023/09/16 13:32:04;;;;;;;3.00;2.65;;;;;;;;;;5062662;28;20871;-49
2023/09/16 13:34:45;;;;;;;4.35;2.45;;;;;;;;;;5066779;28;20172;-51
2023/09/16 13:37:14;;;;;;;2.92;2.70;;;;;;;;;;5068450;28;20172;-56
2023/09/16 13:39:47;;;;;;;3.03;2.30;;;;;;;;;;5070266;28;20169;-52
2023/09/16 13:42:16;;;;;;;4.28;2.03;;;;;;;;;;5068209;28;20479;-53
2023/09/16 13:44:47;;;;;;;2.40;1.85;;;;;;;;;;5068929;28;20188;-52
2023/09/16 13:47:14;;;;;;;2.65;1.80;;;;;;;;;;5068705;28;20161;-52
2023/09/16 13:49:42;;;;;;;2.53;2.03;;;;;;;;;;5068523;28;20763;-51
2023/09/16 13:52:12;;;;;;;4.28;2.35;;;;;;;;;;5067893;28;20208;-51
2023/09/16 13:54:40;;;;;;;3.08;2.45;;;;;;;;;;5069119;28;20834;-53
2023/09/16 13:57:09;;;;;;;3.22;2.10;;;;;;;;;;5067432;28;20218;-53
2023/09/16 13:59:38;;;;;;;3.95;1.98;;;;;;;;;;5066294;28;20172;-55
2023/09/16 14:02:06;;;;;;;3.05;2.42;;;;;;;;;;5067665;28;20188;-55
2023/09/16 14:04:34;;;;;;;3.03;2.38;;;;;;;;;;5066718;28;20168;-50
2023/09/16 14:07:02;;;;;;;3.53;2.10;;;;;;;;;;5066219;28;20165;-50
2023/09/16 14:09:30;;;;;;;2.30;1.70;;;;;;;;;;5065786;28;20268;-49
2023/09/16 14:11:58;;;;;;;3.97;1.73;;;;;;;;;;5068612;28;20230;-53
2023/09/16 14:14:25;;;;;;;2.38;2.10;;;;;;;;;;5068368;28;20413;-52
2023/09/16 14:16:55;;;;;;;3.15;2.30;;;;;;;;;;5068039;28;20628;-53
2023/09/16 14:19:22;;;;;;;2.35;2.08;;;;;;;;;;5068775;28;20175;-49
2023/09/16 14:21:50;;;;;;;2.17;1.98;;;;;;;;;;5065989;28;20224;-51
2023/09/16 14:24:20;;;;;;;2.00;1.77;;;;;;;;;;5069059;28;20259;-49
2023/09/16 14:26:49;;;;;;;2.60;1.85;;;;;;;;;;5067430;28;20172;-48
2023/09/16 14:29:16;;;;;;;2.58;2.05;;;;;;;;;;5060439;28;20256;-50
2023/09/16 14:31:46;;;;;;;2.70;2.50;;;;;;;;;;5061283;28;20810;-51
2023/09/16 14:34:14;;;;;;;2.72;2.33;;;;;;;;;;5062285;28;20537;-49
2023/09/16 14:36:44;;;;;;;2.28;2.03;;;;;;;;;;5061388;28;20252;-50
2023/09/16 14:39:12;;;;;;;3.08;2.25;;;;;;;;;;5060527;28;20377;-52
2023/09/16 14:41:41;;;;;;;2.42;2.20;;;;;;;;;;5059786;28;20609;-50
2023/09/16 14:44:10;;;;;;;2.10;1.90;;;;;;;;;;5062193;28;20279;-49